Jacqueline Cochran Regional Airport
KTRM : now visible

Airfield :











YOU CAN JOIN US ON...

 
LOGIN :

Register | Disclaimer

   EN    FR    IT 

 









Legend :    VFR   Marginal VFR   IFR   Intensive IFR   Very Intensive IFR
Visi :
Ceiling :
>= 8 km
>= 3000ft
5 to 8 km
1000 to 3000 ft
1500m to 5 km
500 to 1000 ft
800 to 1500m
200 to 500 ft
< 800m
< 200 ft
Symbols :   Thunderstorms  Fog  Heavy snow  Heavy precipitations  Wind > 20 kt






- Airport Elevation : -115 ft


KTRM - Jacqueline Cochran Regional

CURRENT METAR :
  • 180352Z AUTO 33023G29KT 9SM CLR 29/13 A2944 RMK AO2 PK WND 34029/0351 SLP972 T02890133

EXPIRED METARs :
  • 180252Z AUTO 33019G30KT 8SM CLR 31/12 A2943 RMK AO2 PK WND 32030/0246 SLP968 T03060122 53003
  • 180152Z AUTO 33020G27KT 9SM CLR 33/12 A2942 RMK AO2 PK WND 33027/0117 SLP965 T03280122
  • 180052Z AUTO 34017KT 9SM CLR 35/12 A2942 RMK AO2 PK WND 33026/0041 SLP973 T03500122
  • 172352Z AUTO 34016KT 9SM CLR 37/11 A2942 RMK AO2 SLP966 T03720111 10394 20344 56015

TAF KTRM
Valid from the 18 at 00:00 until the 19 at 00:00 UTC


172335Z 1800/1824 33012KT P6SM SKC
FM180100 33015G25KT P6SM SKC
FM181000 33010KT P6SM FEW200
FM181800 VRB05KT P6SM FEW200
KZLA FIR / North America



MET'MAP, your aeronautical weather chart ! - Copyright ORBIFLY December 2007 - Disclaimer

ORBIFLY MET'MAP TEAM :

Programming & Development : Alexandra Zaïnal
Original concept : Baudouin d'Aumeries
Technical & hardware support : Manuel Goepfert
Assistance : Marc-Olivier Méhu




SOURCES & CREDITS :

   NOAA       Earth
Advisory